Time;durP1;ratioP1;P1;durP2;ratioP2;P2;SDS_P1;SDS_P2;PMS_P1;PMS_P2;Temp;Humidity;BMP_temperature;BMP_pressure;BME280_temperature;BME280_humidity;BME280_pressure;Samples;Min_cycle;Max_cycle;Signal;HPM_P1;HPM_P2
2021/07/22 00:00:52;;;;;;;17.98;13.55;;;16.60;93.40;;;;;;5006167;28;20137;-49
2021/07/22 00:03:20;;;;;;;21.30;13.88;;;16.60;93.40;;;;;;5022846;28;20053;-50
2021/07/22 00:05:46;;;;;;;22.67;14.27;;;16.50;93.40;;;;;;4995139;28;20030;-52
2021/07/22 00:08:11;;;;;;;18.33;13.68;;;16.50;93.50;;;;;;5013077;28;20081;-52
2021/07/22 00:10:39;;;;;;;22.58;14.68;;;16.50;93.50;;;;;;5012801;28;20061;-54
2021/07/22 00:13:04;;;;;;;20.67;14.20;;;16.50;93.60;;;;;;5010963;28;20411;-52
2021/07/22 00:15:30;;;;;;;18.52;13.55;;;16.50;93.60;;;;;;5010651;28;20041;-52
2021/07/22 00:17:56;;;;;;;21.65;13.98;;;16.50;93.60;;;;;;5008471;28;20045;-54
2021/07/22 00:20:22;;;;;;;24.13;14.43;;;16.50;93.70;;;;;;5023355;28;20053;-52
2021/07/22 00:22:47;;;;;;;22.27;14.40;;;16.40;93.60;;;;;;5013112;28;20399;-52
2021/07/22 00:25:13;;;;;;;20.83;14.15;;;16.40;93.70;;;;;;5002836;28;20073;-53
2021/07/22 00:27:39;;;;;;;20.00;13.98;;;16.40;93.70;;;;;;5011137;28;20038;-53
2021/07/22 00:30:05;;;;;;;23.00;15.10;;;16.30;93.70;;;;;;5013596;28;20057;-54
2021/07/22 00:32:31;;;;;;;20.88;14.23;;;16.30;93.70;;;;;;5019648;28;20045;-51
2021/07/22 00:34:57;;;;;;;20.02;14.52;;;16.30;93.70;;;;;;4996612;28;20049;-51
2021/07/22 00:37:22;;;;;;;22.05;14.07;;;16.30;93.60;;;;;;5010793;28;20042;-52
2021/07/22 00:39:48;;;;;;;20.45;13.75;;;16.30;93.70;;;;;;5010974;28;20045;-54
2021/07/22 00:42:14;;;;;;;17.58;13.55;;;16.20;93.70;;;;;;5021490;28;20176;-52
2021/07/22 00:44:39;;;;;;;19.95;13.57;;;16.30;93.80;;;;;;5011662;28;20042;-52
2021/07/22 00:47:05;;;;;;;22.98;14.25;;;16.30;93.80;;;;;;5011110;28;20045;-54
2021/07/22 00:49:31;;;;;;;18.88;13.15;;;16.30;93.60;;;;;;5008032;28;20045;-50
2021/07/22 00:51:57;;;;;;;19.88;14.15;;;16.20;93.50;;;;;;4978286;28;20096;-53
2021/07/22 00:54:22;;;;;;;19.73;13.27;;;16.20;93.70;;;;;;5010396;28;20055;-52
2021/07/22 00:56:48;;;;;;;22.65;14.48;;;16.20;93.70;;;;;;5012479;28;20030;-50
2021/07/22 00:59:14;;;;;;;17.70;12.95;;;16.10;93.70;;;;;;5013427;28;20042;-52
2021/07/22 01:01:39;;;;;;;21.58;13.75;;;16.10;93.70;;;;;;5013503;28;20042;-53
2021/07/22 01:04:05;;;;;;;18.27;13.77;;;16.10;93.80;;;;;;5008480;28;20034;-51
2021/07/22 01:06:31;;;;;;;22.67;14.35;;;16.10;93.80;;;;;;5009495;28;20049;-53
2021/07/22 01:08:57;;;;;;;21.75;13.80;;;16.10;93.80;;;;;;5011677;28;20105;-53
2021/07/22 01:11:23;;;;;;;19.92;13.93;;;16.10;93.70;;;;;;5010574;28;20050;-53
2021/07/22 01:13:48;;;;;;;20.65;14.23;;;16.10;93.80;;;;;;5012405;28;20391;-53
2021/07/22 01:16:14;;;;;;;20.15;14.20;;;16.20;93.90;;;;;;5018072;28;20045;-53
2021/07/22 01:18:40;;;;;;;26.83;14.60;;;16.20;93.70;;;;;;5011542;28;20045;-50
2021/07/22 01:21:09;;;;;;;23.00;14.88;;;16.20;93.80;;;;;;5010318;28;20469;-54
2021/07/22 01:23:35;;;;;;;21.95;14.80;;;16.20;93.70;;;;;;5011071;28;20096;-53
2021/07/22 01:26:01;;;;;;;20.08;14.55;;;16.10;93.80;;;;;;5008889;28;20038;-52
2021/07/22 01:28:27;;;;;;;18.92;13.80;;;16.10;93.90;;;;;;5010556;28;20044;-53
2021/07/22 01:30:52;;;;;;;19.83;13.40;;;16.10;93.80;;;;;;5005112;28;20045;-51
2021/07/22 01:33:18;;;;;;;21.67;13.57;;;16.10;93.70;;;;;;5007987;28;20072;-50
2021/07/22 01:35:44;;;;;;;20.38;14.10;;;16.10;93.80;;;;;;5003393;28;20038;-54
2021/07/22 01:38:10;;;;;;;20.02;14.13;;;16.10;93.80;;;;;;5014650;28;20038;-52
2021/07/22 01:40:36;;;;;;;22.02;14.32;;;16.10;93.80;;;;;;5013274;28;20034;-53
2021/07/22 01:43:05;;;;;;;21.83;14.25;;;16.10;93.90;;;;;;5008759;28;20096;-52
2021/07/22 01:45:32;;;;;;;21.85;13.93;;;16.20;93.80;;;;;;5008014;28;20423;-51
2021/07/22 01:47:58;;;;;;;19.55;15.18;;;16.20;93.70;;;;;;5001006;28;20056;-51
2021/07/22 01:50:23;;;;;;;18.50;13.45;;;16.20;93.90;;;;;;5004426;28;20065;-52
2021/07/22 01:52:49;;;;;;;20.95;14.27;;;16.10;93.80;;;;;;5011428;28;20491;-48
2021/07/22 01:55:15;;;;;;;20.08;13.85;;;16.10;93.80;;;;;;5005595;28;20038;-51
2021/07/22 01:57:40;;;;;;;18.92;13.82;;;16.10;93.80;;;;;;5008184;28;20413;-50
2021/07/22 02:00:06;;;;;;;23.60;15.32;;;16.00;93.90;;;;;;5003056;28;20100;-52
2021/07/22 02:02:32;;;;;;;23.45;13.98;;;16.10;94.00;;;;;;5010064;28;20542;-51
2021/07/22 02:05:01;;;;;;;19.40;13.65;;;16.00;93.90;;;;;;4993670;28;20108;-49
2021/07/22 02:07:27;;;;;;;20.52;14.00;;;16.00;93.90;;;;;;5004548;28;20050;-49
2021/07/22 02:09:53;;;;;;;20.58;14.40;;;16.00;94.00;;;;;;5008507;28;20042;-51
2021/07/22 02:12:20;;;;;;;20.02;13.50;;;16.00;94.10;;;;;;5011459;28;20092;-49
2021/07/22 02:14:50;;;;;;;18.40;13.95;;;16.00;93.90;;;;;;5011184;28;20041;-50
2021/07/22 02:17:16;;;;;;;21.25;13.32;;;16.00;93.90;;;;;;5011425;28;20117;-51
2021/07/22 02:19:41;;;;;;;20.90;14.13;;;16.00;94.00;;;;;;5010191;28;20049;-51
2021/07/22 02:22:07;;;;;;;21.17;14.13;;;16.00;94.00;;;;;;5015141;28;20045;-49
2021/07/22 02:24:33;;;;;;;23.45;14.15;;;16.00;94.10;;;;;;5015029;28;20550;-51
2021/07/22 02:27:01;;;;;;;20.65;14.77;;;16.00;93.90;;;;;;5015790;28;20033;-50
2021/07/22 02:29:27;;;;;;;21.40;14.02;;;15.90;93.90;;;;;;5013975;28;20037;-49
2021/07/22 02:31:52;;;;;;;20.77;13.95;;;15.90;94.00;;;;;;5007115;28;20038;-51
2021/07/22 02:34:18;;;;;;;18.42;13.77;;;15.90;94.00;;;;;;5009796;28;20042;-50
2021/07/22 02:36:43;;;;;;;20.35;13.50;;;15.90;94.00;;;;;;5015963;28;20034;-49
2021/07/22 02:39:09;;;;;;;20.98;12.93;;;15.90;94.00;;;;;;5016469;28;20083;-49
2021/07/22 02:41:35;;;;;;;22.30;13.98;;;15.90;94.10;;;;;;5015125;28;20046;-50
2021/07/22 02:44:00;;;;;;;21.65;14.05;;;15.90;94.00;;;;;;5015006;28;20077;-50
2021/07/22 02:46:26;;;;;;;19.35;13.82;;;15.90;94.20;;;;;;5012421;28;20075;-51
2021/07/22 02:49:00;;;;;;;20.60;14.48;;;15.90;94.00;;;;;;5018083;28;20048;-49
2021/07/22 02:51:25;;;;;;;21.10;14.23;;;15.90;94.10;;;;;;5015754;28;20418;-49
2021/07/22 02:53:51;;;;;;;19.45;14.13;;;15.90;94.10;;;;;;5016936;28;20463;-52
2021/07/22 02:56:17;;;;;;;20.73;13.30;;;15.90;94.00;;;;;;5014922;28;20045;-50
2021/07/22 02:58:43;;;;;;;21.27;14.20;;;15.90;94.00;;;;;;5013924;28;20110;-50
2021/07/22 03:01:09;;;;;;;17.40;13.48;;;15.90;94.00;;;;;;5015664;28;20050;-49
2021/07/22 03:03:35;;;;;;;21.98;14.00;;;15.90;93.90;;;;;;5015260;28;20414;-49
2021/07/22 03:06:01;;;;;;;19.70;13.48;;;15.90;93.90;;;;;;5005780;28;20056;-51
2021/07/22 03:08:35;;;;;;;19.50;13.70;;;15.90;93.90;;;;;;4999066;28;20557;-51
2021/07/22 03:11:01;;;;;;;18.63;13.45;;;15.90;93.90;;;;;;5014231;28;20502;-49
2021/07/22 03:13:26;;;;;;;20.65;13.40;;;15.90;93.90;;;;;;5008696;28;20038;-49
2021/07/22 03:15:52;;;;;;;18.48;13.32;;;15.80;94.00;;;;;;5027635;28;20042;-49
2021/07/22 03:18:20;;;;;;;18.95;14.02;;;15.80;94.00;;;;;;5014442;28;20057;-52
2021/07/22 03:20:47;;;;;;;19.70;13.85;;;15.80;94.00;;;;;;5014019;28;20038;-51
2021/07/22 03:23:14;;;;;;;18.95;14.07;;;15.80;94.10;;;;;;5013999;28;20125;-53
2021/07/22 03:25:40;;;;;;;21.20;13.43;;;15.80;94.20;;;;;;5016883;28;20042;-50
2021/07/22 03:28:05;;;;;;;23.65;14.23;;;15.70;94.20;;;;;;5020007;28;20557;-49
2021/07/22 03:30:32;;;;;;;18.17;13.52;;;15.70;94.30;;;;;;5018603;28;20499;-52
2021/07/22 03:32:57;;;;;;;19.33;13.38;;;15.70;94.40;;;;;;5032353;28;20087;-52
2021/07/22 03:35:23;;;;;;;20.70;14.20;;;15.70;94.40;;;;;;5008095;28;20046;-50
2021/07/22 03:37:49;;;;;;;19.70;13.95;;;15.60;94.50;;;;;;5002445;28;20065;-48
2021/07/22 03:40:14;;;;;;;22.30;14.43;;;15.70;94.50;;;;;;5011615;28;20045;-52
2021/07/22 03:42:40;;;;;;;23.33;14.55;;;15.60;94.40;;;;;;5021562;28;20067;-51
2021/07/22 03:45:07;;;;;;;22.75;14.68;;;15.60;94.50;;;;;;5007343;28;20050;-49
2021/07/22 03:47:34;;;;;;;25.42;15.38;;;15.60;94.50;;;;;;5009920;28;20038;-52
2021/07/22 03:50:02;;;;;;;20.70;13.98;;;15.60;94.50;;;;;;5012847;28;20038;-50
2021/07/22 03:52:28;;;;;;;20.73;13.50;;;15.60;94.50;;;;;;5020310;28;20034;-52
2021/07/22 03:54:54;;;;;;;20.83;14.25;;;15.70;94.50;;;;;;5008654;28;20454;-49
2021/07/22 03:57:20;;;;;;;21.30;15.25;;;15.70;94.50;;;;;;5008728;28;20041;-48
2021/07/22 03:59:45;;;;;;;21.77;15.15;;;15.60;94.40;;;;;;5006334;28;20061;-49
2021/07/22 04:02:12;;;;;;;22.13;15.20;;;15.60;94.50;;;;;;4960519;28;20104;-51
2021/07/22 04:04:39;;;;;;;23.30;15.57;;;15.60;94.60;;;;;;5010509;28;20073;-51
2021/07/22 04:07:05;;;;;;;22.67;15.80;;;15.60;94.60;;;;;;5011595;28;20050;-52
2021/07/22 04:09:30;;;;;;;19.58;14.73;;;15.60;94.60;;;;;;5010194;28;20052;-53
2021/07/22 04:11:56;;;;;;;20.60;15.10;;;15.70;94.70;;;;;;5014017;28;20475;-48
2021/07/22 04:14:22;;;;;;;19.63;15.35;;;15.70;94.60;;;;;;5015345;28;20052;-49
2021/07/22 04:16:48;;;;;;;27.10;16.42;;;15.70;94.60;;;;;;5004404;28;20065;-50
2021/07/22 04:19:13;;;;;;;22.42;16.10;;;15.70;94.70;;;;;;5007053;28;20038;-52
2021/07/22 04:21:39;;;;;;;22.40;16.42;;;15.70;94.70;;;;;;4995953;28;20054;-50
2021/07/22 04:24:05;;;;;;;23.35;16.13;;;15.70;94.80;;;;;;5010784;28;20095;-51
2021/07/22 04:26:31;;;;;;;23.65;15.88;;;15.70;94.70;;;;;;5003915;28;20096;-50
2021/07/22 04:28:56;;;;;;;24.60;16.58;;;15.70;95.00;;;;;;5009085;28;20034;-52
2021/07/22 04:31:22;;;;;;;23.90;16.95;;;15.70;94.60;;;;;;5019769;28;20494;-52
2021/07/22 04:33:48;;;;;;;22.52;16.05;;;15.70;94.70;;;;;;5006275;28;20046;-52
2021/07/22 04:36:17;;;;;;;26.88;16.90;;;15.80;95.00;;;;;;5004381;28;20069;-52
2021/07/22 04:38:43;;;;;;;25.63;16.75;;;15.70;94.80;;;;;;5011113;28;20034;-53
2021/07/22 04:41:09;;;;;;;24.25;17.00;;;15.80;94.90;;;;;;5006089;28;20050;-50
2021/07/22 04:43:35;;;;;;;27.38;17.05;;;15.90;95.20;;;;;;5011975;28;20072;-50
2021/07/22 04:46:04;;;;;;;27.25;17.10;;;15.80;94.90;;;;;;5008646;28;20045;-49
2021/07/22 04:48:31;;;;;;;27.27;17.98;;;15.80;94.90;;;;;;5010814;28;20069;-52
2021/07/22 04:50:57;;;;;;;28.38;17.80;;;15.90;95.00;;;;;;5011974;28;20057;-52
2021/07/22 04:53:23;;;;;;;26.60;17.52;;;15.90;95.00;;;;;;5006161;28;20053;-51
2021/07/22 04:55:48;;;;;;;24.33;16.73;;;15.90;95.00;;;;;;5004266;28;20037;-50
2021/07/22 04:58:14;;;;;;;26.20;17.65;;;15.90;95.10;;;;;;5008132;28;20380;-51
2021/07/22 05:00:39;;;;;;;29.65;16.73;;;15.90;95.00;;;;;;5002738;28;20053;-50
2021/07/22 05:03:05;;;;;;;23.17;17.08;;;15.90;95.00;;;;;;4997292;28;20046;-53
2021/07/22 05:05:35;;;;;;;24.48;17.30;;;15.90;95.10;;;;;;5000066;28;20034;-52
2021/07/22 05:08:02;;;;;;;26.55;17.23;;;15.90;95.00;;;;;;5008068;28;20050;-49
2021/07/22 05:10:29;;;;;;;27.45;16.92;;;16.00;95.10;;;;;;5011988;28;20041;-53
2021/07/22 05:13:03;;;;;;;23.83;16.27;;;16.00;94.90;;;;;;5010846;28;20054;-53
2021/07/22 05:15:30;;;;;;;23.77;16.65;;;16.00;94.90;;;;;;4996646;28;20038;-49
2021/07/22 05:17:56;;;;;;;26.80;15.65;;;16.00;94.90;;;;;;5008162;28;20062;-53
2021/07/22 05:20:22;;;;;;;23.58;16.45;;;16.10;94.90;;;;;;5009878;28;20049;-52
2021/07/22 05:22:47;;;;;;;22.08;16.02;;;16.10;94.90;;;;;;5011820;28;20033;-49
2021/07/22 05:25:13;;;;;;;28.13;16.73;;;16.20;94.80;;;;;;5009766;28;20052;-51
2021/07/22 05:27:39;;;;;;;25.10;16.70;;;16.20;94.90;;;;;;5002562;28;20125;-52
2021/07/22 05:30:05;;;;;;;23.00;16.15;;;16.20;94.80;;;;;;5002924;28;20034;-52
2021/07/22 05:32:31;;;;;;;23.95;16.63;;;16.20;94.60;;;;;;5011330;28;20048;-54
2021/07/22 05:34:58;;;;;;;25.25;16.50;;;16.30;95.00;;;;;;4976911;28;20052;-53
2021/07/22 05:37:23;;;;;;;26.15;16.23;;;16.30;94.70;;;;;;5001812;28;20038;-52
2021/07/22 05:39:50;;;;;;;24.58;16.92;;;16.30;94.70;;;;;;5011438;28;20042;-52
2021/07/22 05:42:15;;;;;;;22.13;16.73;;;16.40;94.80;;;;;;5005595;28;20050;-49
2021/07/22 05:44:41;;;;;;;25.88;16.80;;;16.40;94.60;;;;;;5009354;28;20129;-53
2021/07/22 05:47:07;;;;;;;23.27;16.48;;;16.40;94.60;;;;;;5010553;28;20426;-53
2021/07/22 05:49:33;;;;;;;23.85;16.08;;;16.40;94.50;;;;;;5009119;28;20061;-50
2021/07/22 05:51:59;;;;;;;25.77;16.58;;;16.40;94.50;;;;;;5006869;28;20069;-52
2021/07/22 05:54:25;;;;;;;23.10;16.30;;;16.50;94.50;;;;;;5005185;28;20552;-54
2021/07/22 05:56:51;;;;;;;27.55;16.63;;;16.50;94.70;;;;;;4975969;28;20506;-52
2021/07/22 05:59:17;;;;;;;26.95;16.48;;;16.60;94.60;;;;;;4984622;28;20162;-50
2021/07/22 06:01:43;;;;;;;24.73;16.33;;;16.70;94.10;;;;;;5016870;28;20515;-52
2021/07/22 06:04:08;;;;;;;22.50;16.17;;;16.70;94.10;;;;;;5009414;28;20036;-51
2021/07/22 06:06:35;;;;;;;23.80;16.50;;;16.70;94.20;;;;;;5008984;28;20050;-52
2021/07/22 06:09:01;;;;;;;22.85;15.65;;;16.70;94.20;;;;;;5005947;28;20096;-53
2021/07/22 06:11:28;;;;;;;24.55;15.75;;;16.80;94.10;;;;;;5010974;28;20052;-53
2021/07/22 06:13:54;;;;;;;23.08;15.88;;;16.80;94.10;;;;;;5010596;28;20112;-51
2021/07/22 06:16:20;;;;;;;21.85;15.88;;;16.90;94.00;;;;;;5007351;28;20097;-53
2021/07/22 06:18:46;;;;;;;24.42;16.38;;;16.90;94.20;;;;;;5002167;28;20113;-52
2021/07/22 06:21:16;;;;;;;25.85;15.95;;;16.80;94.00;;;;;;5010895;28;20558;-53
2021/07/22 06:23:42;;;;;;;22.67;15.82;;;16.90;94.00;;;;;;5009493;28;20057;-53
2021/07/22 06:26:08;;;;;;;23.33;16.05;;;16.90;94.00;;;;;;5018512;28;20050;-50
2021/07/22 06:28:34;;;;;;;22.48;14.93;;;16.90;93.80;;;;;;5006762;28;20104;-53
2021/07/22 06:30:59;;;;;;;21.27;14.80;;;17.00;93.80;;;;;;5009598;28;20070;-53
2021/07/22 06:33:25;;;;;;;19.67;13.73;;;17.00;93.80;;;;;;5010690;28;20762;-53
2021/07/22 06:35:52;;;;;;;23.05;14.00;;;17.00;93.30;;;;;;5011601;28;20076;-52
2021/07/22 06:38:17;;;;;;;22.27;14.85;;;17.00;93.30;;;;;;5021394;28;20050;-52
2021/07/22 06:40:44;;;;;;;24.95;14.55;;;17.10;93.30;;;;;;5008120;28;20050;-54
2021/07/22 06:43:11;;;;;;;23.83;15.98;;;17.00;93.10;;;;;;5015092;28;20049;-56
2021/07/22 06:45:43;;;;;;;22.40;15.02;;;17.20;92.50;;;;;;5017996;28;20474;-55
2021/07/22 06:48:09;;;;;;;18.38;13.23;;;17.20;92.50;;;;;;5013433;28;20041;-56
2021/07/22 06:50:36;;;;;;;20.38;14.63;;;17.20;92.30;;;;;;5015629;28;20050;-53
2021/07/22 06:53:03;;;;;;;21.88;13.55;;;17.20;92.30;;;;;;5014906;28;20066;-51
2021/07/22 06:55:31;;;;;;;20.45;13.52;;;17.20;92.40;;;;;;5009204;28;20525;-53
2021/07/22 06:58:04;;;;;;;22.58;14.13;;;17.20;92.30;;;;;;5018069;28;20104;-50
2021/07/22 07:00:30;;;;;;;23.58;14.80;;;17.20;92.40;;;;;;5012539;28;20562;-54
2021/07/22 07:02:55;;;;;;;20.80;13.55;;;17.30;92.30;;;;;;5002684;28;20042;-52
2021/07/22 07:05:21;;;;;;;21.63;13.68;;;17.30;92.40;;;;;;5006631;28;20092;-52
2021/07/22 07:07:49;;;;;;;19.95;14.38;;;17.30;92.50;;;;;;4993006;28;20491;-53
2021/07/22 07:10:18;;;;;;;18.65;13.73;;;17.30;92.60;;;;;;4996497;28;20050;-53
2021/07/22 07:12:44;;;;;;;21.38;14.32;;;17.30;92.50;;;;;;5011410;28;20088;-51
2021/07/22 07:15:10;;;;;;;20.85;13.52;;;17.40;92.50;;;;;;5013597;28;20422;-53
2021/07/22 07:17:36;;;;;;;25.27;12.88;;;17.40;92.40;;;;;;5009528;28;20041;-52
2021/07/22 07:20:02;;;;;;;20.83;13.05;;;17.40;92.40;;;;;;4994626;28;20042;-51
2021/07/22 07:22:28;;;;;;;17.45;11.80;;;17.50;92.20;;;;;;5014152;28;20153;-53
2021/07/22 07:24:55;;;;;;;14.98;9.68;;;17.50;91.80;;;;;;5001346;28;20478;-50
2021/07/22 07:27:20;;;;;;;15.00;9.35;;;17.50;91.20;;;;;;5016151;28;20046;-53
2021/07/22 07:29:46;;;;;;;13.68;8.45;;;17.50;91.30;;;;;;5006068;28;20046;-50
2021/07/22 07:32:11;;;;;;;13.93;8.32;;;17.50;90.60;;;;;;5008909;28;20038;-54
2021/07/22 07:34:37;;;;;;;11.32;7.78;;;17.50;90.60;;;;;;5015053;28;20052;-52
2021/07/22 07:37:02;;;;;;;11.50;7.60;;;17.60;90.60;;;;;;5015080;28;20050;-49
2021/07/22 07:39:28;;;;;;;11.02;7.28;;;17.50;90.50;;;;;;5020451;28;20065;-53
2021/07/22 07:41:54;;;;;;;11.57;7.63;;;17.60;90.40;;;;;;5010517;28;20042;-53
2021/07/22 07:44:20;;;;;;;11.52;7.30;;;17.60;90.00;;;;;;5009509;28;20050;-52
2021/07/22 07:46:46;;;;;;;13.10;7.65;;;17.70;87.20;;;;;;5010988;28;20099;-51
2021/07/22 07:49:11;;;;;;;14.23;7.65;;;17.70;88.00;;;;;;5024021;28;20038;-48
2021/07/22 07:51:37;;;;;;;11.38;7.32;;;17.90;85.70;;;;;;5016665;28;20063;-49
2021/07/22 07:54:03;;;;;;;12.18;7.80;;;18.10;84.30;;;;;;5025316;28;20105;-54
2021/07/22 07:56:29;;;;;;;11.73;7.10;;;18.00;84.70;;;;;;5017824;28;20046;-51
2021/07/22 07:58:55;;;;;;;12.68;7.88;;;18.00;84.40;;;;;;5018124;28;20034;-52
2021/07/22 08:01:25;;;;;;;11.90;6.78;;;18.00;85.60;;;;;;5026636;28;20045;-48
2021/07/22 08:03:51;;;;;;;11.38;7.47;;;18.10;84.30;;;;;;5018836;28;20049;-53
2021/07/22 08:06:16;;;;;;;10.05;6.60;;;18.30;83.60;;;;;;5019755;28;20033;-52
2021/07/22 08:08:42;;;;;;;10.77;6.93;;;18.30;84.60;;;;;;5027835;28;20045;-53
2021/07/22 08:11:08;;;;;;;9.68;7.35;;;18.30;85.10;;;;;;5018190;28;20066;-53
2021/07/22 08:13:34;;;;;;;9.70;6.25;;;18.30;84.70;;;;;;5026061;28;20068;-53
2021/07/22 08:16:00;;;;;;;9.52;6.30;;;18.30;85.80;;;;;;5027989;28;20033;-53
2021/07/22 08:18:25;;;;;;;11.88;6.50;;;18.30;85.90;;;;;;5024469;28;20109;-52
2021/07/22 08:20:51;;;;;;;8.90;6.20;;;18.20;85.40;;;;;;5011219;28;20125;-54
2021/07/22 08:23:17;;;;;;;10.02;6.43;;;18.10;85.60;;;;;;4986566;28;20056;-53
2021/07/22 08:25:43;;;;;;;9.27;6.07;;;18.20;85.70;;;;;;5021133;28;20041;-53
2021/07/22 08:28:11;;;;;;;9.80;6.28;;;18.30;82.60;;;;;;5024602;28;20112;-53
2021/07/22 08:30:37;;;;;;;9.02;6.40;;;18.20;80.80;;;;;;5021247;28;20045;-54
2021/07/22 08:33:02;;;;;;;8.02;5.75;;;18.20;81.20;;;;;;5027074;28;20112;-54
2021/07/22 08:35:28;;;;;;;8.63;6.18;;;18.30;81.10;;;;;;5021424;28;20093;-52
2021/07/22 08:37:54;;;;;;;10.63;5.97;;;18.20;81.60;;;;;;5020439;28;20564;-53
2021/07/22 08:40:19;;;;;;;10.18;5.72;;;18.20;80.60;;;;;;5024275;28;20474;-53
2021/07/22 08:42:47;;;;;;;9.75;6.15;;;18.30;80.60;;;;;;5024295;28;20092;-53
2021/07/22 08:45:14;;;;;;;9.65;5.75;;;18.30;81.60;;;;;;5023649;28;20058;-51
2021/07/22 08:47:41;;;;;;;9.73;5.80;;;18.30;81.70;;;;;;5018617;28;20041;-53
2021/07/22 08:50:09;;;;;;;7.38;5.28;;;18.30;82.50;;;;;;5020178;28;20050;-53
2021/07/22 08:52:35;;;;;;;9.00;4.97;;;18.30;83.00;;;;;;5011527;28;20050;-52
2021/07/22 08:55:01;;;;;;;9.48;5.70;;;18.30;82.50;;;;;;5005671;28;20045;-51
2021/07/22 08:57:31;;;;;;;8.02;5.43;;;18.30;80.90;;;;;;5000706;28;20039;-53
2021/07/22 09:00:00;;;;;;;11.63;5.55;;;18.40;78.20;;;;;;5004932;28;20041;-53
2021/07/22 09:02:31;;;;;;;8.10;5.82;;;18.40;77.50;;;;;;5010187;28;20065;-52
2021/07/22 09:04:58;;;;;;;9.75;5.38;;;18.40;79.10;;;;;;5002054;28;20069;-52
2021/07/22 09:07:25;;;;;;;8.15;5.22;;;18.60;77.00;;;;;;5008027;28;20133;-52
2021/07/22 09:10:03;;;;;;;6.57;4.72;;;18.80;75.90;;;;;;5005072;28;20041;-50
2021/07/22 09:12:44;;;;;;;9.10;5.47;;;18.90;75.20;;;;;;5017759;28;20182;-49
2021/07/22 09:15:27;;;;;;;8.27;5.75;;;18.90;76.20;;;;;;5015051;28;20037;-50
2021/07/22 09:17:54;;;;;;;8.02;5.70;;;18.90;77.40;;;;;;5012285;28;20041;-50
2021/07/22 09:20:37;;;;;;;6.72;5.00;;;18.80;78.30;;;;;;5008065;28;20550;-52
2021/07/22 09:23:04;;;;;;;6.70;5.13;;;18.80;77.00;;;;;;4994318;28;20103;-52
2021/07/22 09:25:44;;;;;;;11.20;5.82;;;18.70;77.40;;;;;;5010112;28;20045;-54
2021/07/22 09:28:20;;;;;;;9.15;4.95;;;18.70;77.20;;;;;;5014514;28;20038;-51
2021/07/22 09:31:02;;;;;;;9.00;5.20;;;18.70;75.30;;;;;;5005774;28;20038;-49
2021/07/22 09:33:34;;;;;;;7.30;5.20;;;18.70;77.20;;;;;;5015530;28;20053;-51
2021/07/22 09:36:00;;;;;;;9.80;5.20;;;18.70;78.80;;;;;;5024454;28;20040;-50
2021/07/22 09:38:30;;;;;;;7.85;5.45;;;18.80;78.10;;;;;;5014302;28;20076;-54
2021/07/22 09:40:56;;;;;;;9.02;5.47;;;18.80;77.50;;;;;;5018851;28;20044;-52
2021/07/22 09:43:38;;;;;;;10.32;5.72;;;18.80;77.20;;;;;;5013589;28;20095;-52
2021/07/22 09:46:05;;;;;;;9.20;5.10;;;18.90;75.10;;;;;;4997092;28;20509;-52
2021/07/22 09:48:30;;;;;;;8.18;5.13;;;18.80;76.60;;;;;;5008807;28;20038;-54
2021/07/22 09:50:56;;;;;;;8.93;5.40;;;18.80;77.30;;;;;;5009617;28;20040;-50
2021/07/22 09:53:23;;;;;;;9.18;4.95;;;18.80;77.80;;;;;;5019243;28;20042;-53
2021/07/22 09:55:54;;;;;;;7.05;4.90;;;18.80;77.60;;;;;;4991240;28;20076;-52
2021/07/22 09:58:20;;;;;;;9.73;5.90;;;18.80;78.00;;;;;;5010123;28;20491;-52
2021/07/22 10:00:55;;;;;;;9.25;5.32;;;18.80;78.40;;;;;;5010728;28;20090;-53
2021/07/22 10:03:23;;;;;;;8.20;5.88;;;18.80;78.10;;;;;;5005053;28;20506;-52
2021/07/22 10:06:08;;;;;;;8.68;5.55;;;18.80;78.50;;;;;;5009250;28;20124;-49
2021/07/22 10:08:35;;;;;;;11.00;6.38;;;18.90;77.90;;;;;;5012889;28;20096;-51
2021/07/22 10:11:04;;;;;;;8.75;5.63;;;18.90;78.50;;;;;;5010510;28;20503;-51
2021/07/22 10:13:40;;;;;;;7.95;5.70;;;18.90;78.80;;;;;;5011724;28;20525;-50
2021/07/22 10:16:18;;;;;;;9.35;5.70;;;19.00;78.20;;;;;;5020423;28;20057;-51
2021/07/22 10:18:46;;;;;;;9.77;5.80;;;19.10;78.80;;;;;;5026166;28;20459;-50
2021/07/22 10:21:13;;;;;;;8.15;5.22;;;19.30;78.50;;;;;;5010100;28;20081;-51
2021/07/22 10:23:40;;;;;;;6.60;4.90;;;19.30;77.90;;;;;;5010145;28;20049;-51
2021/07/22 10:26:06;;;;;;;7.55;5.22;;;19.30;77.10;;;;;;5009401;28;20041;-53
2021/07/22 10:28:34;;;;;;;9.43;5.38;;;19.30;76.20;;;;;;5009083;28;20429;-50
2021/07/22 10:31:06;;;;;;;10.75;5.22;;;19.20;76.10;;;;;;5010790;28;20034;-49
2021/07/22 10:33:34;;;;;;;7.82;5.50;;;19.20;76.80;;;;;;5009639;28;20038;-49
2021/07/22 10:36:01;;;;;;;6.90;5.03;;;19.20;76.70;;;;;;5008780;28;20038;-51
2021/07/22 10:38:47;;;;;;;7.28;4.78;;;19.20;76.70;;;;;;5009185;28;20056;-51
2021/07/22 10:41:32;;;;;;;7.10;5.00;;;19.40;76.00;;;;;;5010814;28;20042;-53
2021/07/22 10:43:58;;;;;;;6.68;4.93;;;19.70;72.90;;;;;;5011891;28;20046;-54
2021/07/22 10:46:24;;;;;;;8.65;5.65;;;19.90;72.00;;;;;;5014697;28;20103;-53
2021/07/22 10:48:50;;;;;;;9.95;5.30;;;20.10;72.80;;;;;;5010390;28;20045;-54
2021/07/22 10:51:20;;;;;;;7.43;4.80;;;20.20;71.70;;;;;;5014211;28;20039;-53
2021/07/22 10:53:56;;;;;;;8.90;5.38;;;20.40;71.00;;;;;;4988990;28;20095;-51
2021/07/22 10:56:43;;;;;;;6.53;4.93;;;20.50;68.80;;;;;;5016229;28;20310;-53
2021/07/22 10:59:09;;;;;;;7.90;5.47;;;20.50;69.20;;;;;;5008037;28;20038;-53
2021/07/22 11:01:43;;;;;;;7.28;4.63;;;20.40;69.20;;;;;;5017240;28;20414;-54
2021/07/22 11:04:21;;;;;;;7.88;5.00;;;20.30;70.10;;;;;;5022186;28;20034;-51
2021/07/22 11:07:16;;;;;;;7.22;4.68;;;20.10;70.40;;;;;;5013805;28;20044;-50
2021/07/22 11:09:50;;;;;;;8.05;5.45;;;20.00;71.20;;;;;;5010900;28;20061;-52
2021/07/22 11:12:39;;;;;;;7.35;5.03;;;19.90;72.20;;;;;;5015271;28;20046;-50
2021/07/22 11:15:56;;;;;;;7.75;5.07;;;20.00;73.20;;;;;;5026239;28;20050;-53
2021/07/22 11:19:04;;;;;;;7.28;5.18;;;20.30;72.00;;;;;;5015154;28;20042;-50
2021/07/22 11:21:33;;;;;;;7.75;4.72;;;20.60;71.20;;;;;;5013928;28;20505;-50
2021/07/22 11:24:16;;;;;;;8.20;4.72;;;20.90;70.00;;;;;;5013792;28;20045;-51
2021/07/22 11:26:42;;;;;;;8.57;5.15;;;21.20;65.30;;;;;;5026370;28;20056;-52
2021/07/22 11:29:09;;;;;;;7.75;4.63;;;21.30;63.70;;;;;;5012624;28;20034;-52
2021/07/22 11:31:39;;;;;;;8.40;5.00;;;21.30;62.50;;;;;;5014855;28;20038;-53
2021/07/22 11:34:05;;;;;;;7.35;4.50;;;21.20;61.40;;;;;;5016723;28;20044;-54
2021/07/22 11:36:32;;;;;;;6.50;4.57;;;21.20;63.30;;;;;;5013628;28;20041;-51
2021/07/22 11:38:58;;;;;;;8.38;4.55;;;21.20;62.80;;;;;;5013274;28;20120;-50
2021/07/22 11:41:24;;;;;;;5.82;4.43;;;21.20;63.60;;;;;;5012902;28;20076;-52
2021/07/22 11:43:54;;;;;;;7.07;4.68;;;21.40;64.20;;;;;;5011782;28;20061;-52
2021/07/22 11:46:43;;;;;;;7.40;4.70;;;21.50;64.90;;;;;;5009217;28;20086;-52
2021/07/22 11:49:16;;;;;;;5.82;4.30;;;21.40;62.10;;;;;;5009752;28;20093;-50
2021/07/22 11:51:47;;;;;;;7.03;4.47;;;21.40;61.10;;;;;;5022249;28;20056;-53
2021/07/22 11:54:14;;;;;;;6.32;4.13;;;21.40;62.60;;;;;;5015122;28;20049;-49
2021/07/22 11:56:41;;;;;;;7.10;4.65;;;21.40;64.50;;;;;;5012620;28;20049;-53
2021/07/22 11:59:11;;;;;;;7.30;4.22;;;21.50;65.20;;;;;;4997830;28;20125;-52
2021/07/22 12:01:51;;;;;;;7.72;4.00;;;21.70;61.90;;;;;;5013239;28;20049;-52
2021/07/22 12:04:32;;;;;;;6.15;3.85;;;21.80;61.00;;;;;;5014635;28;20049;-49
2021/07/22 12:07:02;;;;;;;9.30;4.18;;;21.90;63.70;;;;;;5014284;28;20034;-52
2021/07/22 12:09:28;;;;;;;8.73;4.72;;;22.00;63.40;;;;;;5010319;28;20049;-51
2021/07/22 12:12:01;;;;;;;8.32;4.53;;;22.10;63.00;;;;;;4991358;28;20043;-53
2021/07/22 12:14:37;;;;;;;5.38;3.90;;;22.00;62.00;;;;;;5012745;28;20056;-49
2021/07/22 12:17:10;;;;;;;5.65;4.03;;;21.80;62.90;;;;;;5012218;28;20681;-52
2021/07/22 12:19:38;;;;;;;6.22;4.30;;;21.70;64.40;;;;;;5005253;28;20104;-53
2021/07/22 12:22:18;;;;;;;5.90;3.97;;;21.70;64.50;;;;;;5014452;28;20136;-54
2021/07/22 12:24:43;;;;;;;7.50;4.45;;;21.80;61.10;;;;;;5012176;28;20572;-53
2021/07/22 12:27:49;;;;;;;8.77;3.95;;;21.90;63.00;;;;;;5014767;28;20034;-51
2021/07/22 12:30:16;;;;;;;6.18;3.88;;;22.00;60.30;;;;;;5016015;28;20041;-53
2021/07/22 12:33:02;;;;;;;6.47;4.25;;;22.10;60.70;;;;;;5012491;28;20050;-53
2021/07/22 12:35:44;;;;;;;6.28;4.18;;;22.10;60.90;;;;;;5015205;28;20037;-52
2021/07/22 12:38:15;;;;;;;6.43;4.28;;;22.20;59.30;;;;;;4994832;28;20046;-52